sensor_id;sensor_type;location;lat;lon;timestamp;pressure;altitude;pressure_sealevel;temperature;humidity
15604;BME280;7902;49.042;9.092;2022-12-16T00:01:21;97890.59;;;5.51;54.34
15604;BME280;7902;49.042;9.092;2022-12-16T00:03:51;97893.00;;;5.54;54.39
15604;BME280;7902;49.042;9.092;2022-12-16T00:06:19;97893.69;;;5.56;54.01
15604;BME280;7902;49.042;9.092;2022-12-16T00:08:45;97889.13;;;5.60;54.13
15604;BME280;7902;49.042;9.092;2022-12-16T00:11:12;97896.25;;;5.45;54.46
15604;BME280;7902;49.042;9.092;2022-12-16T00:13:38;97899.09;;;5.66;54.54
15604;BME280;7902;49.042;9.092;2022-12-16T00:16:07;97899.59;;;5.71;53.85
15604;BME280;7902;49.042;9.092;2022-12-16T00:18:34;97898.06;;;5.68;54.05
15604;BME280;7902;49.042;9.092;2022-12-16T00:21:00;97899.59;;;5.71;54.38
15604;BME280;7902;49.042;9.092;2022-12-16T00:23:26;97898.09;;;5.80;54.04
15604;BME280;7902;49.042;9.092;2022-12-16T00:25:52;97900.31;;;5.73;54.42
15604;BME280;7902;49.042;9.092;2022-12-16T00:28:18;97900.25;;;5.86;54.18
15604;BME280;7902;49.042;9.092;2022-12-16T00:30:51;97898.56;;;5.73;54.00
15604;BME280;7902;49.042;9.092;2022-12-16T00:33:19;97904.19;;;5.67;54.24
15604;BME280;7902;49.042;9.092;2022-12-16T00:35:46;97910.31;;;5.79;54.47
15604;BME280;7902;49.042;9.092;2022-12-16T00:38:12;97903.34;;;5.67;54.56
15604;BME280;7902;49.042;9.092;2022-12-16T00:40:38;97901.00;;;5.64;54.39
15604;BME280;7902;49.042;9.092;2022-12-16T00:43:04;97904.19;;;5.67;54.10
15604;BME280;7902;49.042;9.092;2022-12-16T00:45:30;97905.13;;;5.66;54.28
15604;BME280;7902;49.042;9.092;2022-12-16T00:47:56;97915.78;;;5.63;54.93
15604;BME280;7902;49.042;9.092;2022-12-16T00:50:22;97918.44;;;5.74;54.49
15604;BME280;7902;49.042;9.092;2022-12-16T00:52:48;97919.31;;;5.86;54.20
15604;BME280;7902;49.042;9.092;2022-12-16T00:55:15;97918.00;;;5.81;53.97
15604;BME280;7902;49.042;9.092;2022-12-16T00:57:42;97915.72;;;5.76;54.91
15604;BME280;7902;49.042;9.092;2022-12-16T01:00:09;97931.69;;;5.71;54.60
15604;BME280;7902;49.042;9.092;2022-12-16T01:02:42;97931.16;;;5.66;55.02
15604;BME280;7902;49.042;9.092;2022-12-16T01:05:10;97936.69;;;5.62;54.69
15604;BME280;7902;49.042;9.092;2022-12-16T01:07:36;97937.94;;;5.69;54.48
15604;BME280;7902;49.042;9.092;2022-12-16T01:10:03;97939.25;;;5.74;54.63
15604;BME280;7902;49.042;9.092;2022-12-16T01:12:30;97948.88;;;5.74;55.02
15604;BME280;7902;49.042;9.092;2022-12-16T01:14:56;97949.91;;;5.71;54.80
15604;BME280;7902;49.042;9.092;2022-12-16T01:17:22;97951.16;;;5.66;55.11
15604;BME280;7902;49.042;9.092;2022-12-16T01:19:51;97953.06;;;5.64;54.55
15604;BME280;7902;49.042;9.092;2022-12-16T01:22:18;97951.06;;;5.67;54.88
15604;BME280;7902;49.042;9.092;2022-12-16T01:24:44;97953.75;;;5.79;54.49
15604;BME280;7902;49.042;9.092;2022-12-16T01:27:10;97967.63;;;5.66;54.55
15604;BME280;7902;49.042;9.092;2022-12-16T01:29:36;97955.28;;;5.81;54.47
15604;BME280;7902;49.042;9.092;2022-12-16T01:32:03;97957.38;;;5.76;54.75
15604;BME280;7902;49.042;9.092;2022-12-16T01:34:29;97954.50;;;5.68;54.75
15604;BME280;7902;49.042;9.092;2022-12-16T01:36:55;97946.28;;;5.61;54.73
15604;BME280;7902;49.042;9.092;2022-12-16T01:39:20;97952.59;;;5.70;54.99
15604;BME280;7902;49.042;9.092;2022-12-16T01:41:46;97955.66;;;5.64;55.37
15604;BME280;7902;49.042;9.092;2022-12-16T01:44:18;97948.88;;;5.61;55.01
15604;BME280;7902;49.042;9.092;2022-12-16T01:46:49;97955.34;;;5.56;55.08
15604;BME280;7902;49.042;9.092;2022-12-16T01:49:28;97952.47;;;5.48;55.53
15604;BME280;7902;49.042;9.092;2022-12-16T01:52:02;97952.28;;;5.51;55.53
15604;BME280;7902;49.042;9.092;2022-12-16T01:54:40;97955.16;;;5.59;54.75
15604;BME280;7902;49.042;9.092;2022-12-16T01:57:11;97953.25;;;5.61;54.96
15604;BME280;7902;49.042;9.092;2022-12-16T01:59:40;97958.91;;;5.55;55.00
15604;BME280;7902;49.042;9.092;2022-12-16T02:02:09;97967.44;;;5.57;55.58
15604;BME280;7902;49.042;9.092;2022-12-16T02:04:35;97960.69;;;5.54;55.25
15604;BME280;7902;49.042;9.092;2022-12-16T02:07:21;97962.69;;;5.51;55.40
15604;BME280;7902;49.042;9.092;2022-12-16T02:09:47;97974.25;;;5.34;55.54
15604;BME280;7902;49.042;9.092;2022-12-16T02:12:26;97968.50;;;5.42;55.94
15604;BME280;7902;49.042;9.092;2022-12-16T02:15:21;97971.44;;;5.37;56.00
15604;BME280;7902;49.042;9.092;2022-12-16T02:23:37;97976.84;;;5.34;55.85
15604;BME280;7902;49.042;9.092;2022-12-16T02:29:18;97978.09;;;5.28;56.35
15604;BME280;7902;49.042;9.092;2022-12-16T02:32:20;97983.00;;;5.33;55.71
15604;BME280;7902;49.042;9.092;2022-12-16T02:37:40;97974.56;;;5.29;55.86
15604;BME280;7902;49.042;9.092;2022-12-16T02:40:26;97982.56;;;5.39;55.99
15604;BME280;7902;49.042;9.092;2022-12-16T02:43:01;97978.41;;;5.24;56.13
15604;BME280;7902;49.042;9.092;2022-12-16T02:45:30;97978.84;;;5.30;56.23
15604;BME280;7902;49.042;9.092;2022-12-16T02:47:56;97975.81;;;5.24;56.22
15604;BME280;7902;49.042;9.092;2022-12-16T02:52:56;97990.28;;;5.28;55.96
15604;BME280;7902;49.042;9.092;2022-12-16T02:55:34;97987.16;;;5.48;55.45
15604;BME280;7902;49.042;9.092;2022-12-16T03:03:39;98004.94;;;5.42;55.10
15604;BME280;7902;49.042;9.092;2022-12-16T03:06:09;98004.97;;;5.29;55.55
15604;BME280;7902;49.042;9.092;2022-12-16T03:08:39;98004.34;;;5.38;55.46
15604;BME280;7902;49.042;9.092;2022-12-16T03:11:06;98001.22;;;5.33;55.49
15604;BME280;7902;49.042;9.092;2022-12-16T03:13:37;98004.34;;;5.38;55.72
15604;BME280;7902;49.042;9.092;2022-12-16T03:16:07;98001.44;;;5.30;55.69
15604;BME280;7902;49.042;9.092;2022-12-16T03:18:37;98002.88;;;5.34;55.25
15604;BME280;7902;49.042;9.092;2022-12-16T03:21:06;98004.75;;;5.32;55.87
15604;BME280;7902;49.042;9.092;2022-12-16T03:23:42;98011.75;;;5.32;55.86
15604;BME280;7902;49.042;9.092;2022-12-16T03:26:20;98003.94;;;5.32;55.37
15604;BME280;7902;49.042;9.092;2022-12-16T03:29:26;98008.94;;;5.35;55.34
15604;BME280;7902;49.042;9.092;2022-12-16T03:32:04;98017.22;;;5.52;54.97
15604;BME280;7902;49.042;9.092;2022-12-16T03:34:43;98016.94;;;5.44;54.72
15604;BME280;7902;49.042;9.092;2022-12-16T03:37:11;98013.28;;;5.34;55.09
15604;BME280;7902;49.042;9.092;2022-12-16T03:39:46;98019.94;;;5.38;54.65
15604;BME280;7902;49.042;9.092;2022-12-16T03:42:14;98015.69;;;5.50;54.68
15604;BME280;7902;49.042;9.092;2022-12-16T03:44:42;98019.13;;;5.50;54.65
15604;BME280;7902;49.042;9.092;2022-12-16T03:47:08;98018.91;;;5.53;54.71
15604;BME280;7902;49.042;9.092;2022-12-16T03:49:34;98021.91;;;5.47;54.57
15604;BME280;7902;49.042;9.092;2022-12-16T03:52:00;98020.25;;;5.46;54.74
15604;BME280;7902;49.042;9.092;2022-12-16T03:54:26;98026.81;;;5.39;54.11
15604;BME280;7902;49.042;9.092;2022-12-16T03:56:52;98025.16;;;5.38;54.64
15604;BME280;7902;49.042;9.092;2022-12-16T03:59:19;98038.38;;;5.48;54.54
15604;BME280;7902;49.042;9.092;2022-12-16T04:01:45;98037.13;;;5.53;54.31
15604;BME280;7902;49.042;9.092;2022-12-16T04:04:11;98043.25;;;5.52;54.16
15604;BME280;7902;49.042;9.092;2022-12-16T04:06:37;98045.56;;;5.44;54.90
15604;BME280;7902;49.042;9.092;2022-12-16T04:09:03;98043.25;;;5.52;54.43
15604;BME280;7902;49.042;9.092;2022-12-16T04:11:29;98042.25;;;5.55;53.99
15604;BME280;7902;49.042;9.092;2022-12-16T04:14:13;98045.47;;;5.58;54.19
15604;BME280;7902;49.042;9.092;2022-12-16T04:16:58;98051.81;;;5.54;53.85
15604;BME280;7902;49.042;9.092;2022-12-16T04:19:44;98050.56;;;5.60;53.85
15604;BME280;7902;49.042;9.092;2022-12-16T04:22:35;98046.38;;;5.57;54.06
15604;BME280;7902;49.042;9.092;2022-12-16T04:25:33;98053.28;;;5.58;53.82
15604;BME280;7902;49.042;9.092;2022-12-16T04:28:00;98057.84;;;5.67;53.50
15604;BME280;7902;49.042;9.092;2022-12-16T04:30:28;98062.84;;;5.58;53.37
15604;BME280;7902;49.042;9.092;2022-12-16T04:32:59;98058.88;;;5.52;53.77
15604;BME280;7902;49.042;9.092;2022-12-16T04:35:44;98053.16;;;5.60;53.53
15604;BME280;7902;49.042;9.092;2022-12-16T04:38:28;98065.75;;;5.66;53.11
15604;BME280;7902;49.042;9.092;2022-12-16T04:41:13;98064.72;;;5.56;53.63
15604;BME280;7902;49.042;9.092;2022-12-16T04:43:58;98071.59;;;5.69;53.10
15604;BME280;7902;49.042;9.092;2022-12-16T04:46:43;98067.75;;;5.62;53.56
15604;BME280;7902;49.042;9.092;2022-12-16T04:49:27;98065.88;;;5.64;53.04
15604;BME280;7902;49.042;9.092;2022-12-16T04:52:12;98077.09;;;5.52;53.59
15604;BME280;7902;49.042;9.092;2022-12-16T04:54:56;98075.34;;;5.53;53.72
15604;BME280;7902;49.042;9.092;2022-12-16T04:57:52;98084.72;;;5.55;53.17
15604;BME280;7902;49.042;9.092;2022-12-16T05:00:42;98083.47;;;5.48;53.68
15604;BME280;7902;49.042;9.092;2022-12-16T05:03:27;98083.25;;;5.51;53.07
15604;BME280;7902;49.042;9.092;2022-12-16T05:06:12;98088.97;;;5.56;53.21
15604;BME280;7902;49.042;9.092;2022-12-16T05:08:57;98090.03;;;5.54;53.23
15604;BME280;7902;49.042;9.092;2022-12-16T05:11:42;98099.50;;;5.42;53.75
15604;BME280;7902;49.042;9.092;2022-12-16T05:14:27;98093.03;;;5.48;53.71
15604;BME280;7902;49.042;9.092;2022-12-16T05:17:11;98105.97;;;5.49;53.49
15604;BME280;7902;49.042;9.092;2022-12-16T05:19:56;98104.59;;;5.56;53.26
15604;BME280;7902;49.042;9.092;2022-12-16T05:22:41;98108.75;;;5.46;53.40
15604;BME280;7902;49.042;9.092;2022-12-16T05:25:25;98114.41;;;5.40;53.24
15604;BME280;7902;49.042;9.092;2022-12-16T05:28:10;98115.25;;;5.41;53.40
15604;BME280;7902;49.042;9.092;2022-12-16T05:30:54;98117.22;;;5.62;53.25
15604;BME280;7902;49.042;9.092;2022-12-16T05:33:38;98127.84;;;5.59;53.07
15604;BME280;7902;49.042;9.092;2022-12-16T05:36:23;98127.19;;;5.56;53.17
15604;BME280;7902;49.042;9.092;2022-12-16T05:39:07;98130.53;;;5.58;53.00
15604;BME280;7902;49.042;9.092;2022-12-16T05:41:53;98137.75;;;5.54;53.18
15604;BME280;7902;49.042;9.092;2022-12-16T05:44:37;98135.75;;;5.58;53.24
15604;BME280;7902;49.042;9.092;2022-12-16T05:47:22;98139.72;;;5.51;53.28
15604;BME280;7902;49.042;9.092;2022-12-16T05:50:07;98142.41;;;5.49;53.12
15604;BME280;7902;49.042;9.092;2022-12-16T05:52:53;98150.22;;;5.49;52.92
15604;BME280;7902;49.042;9.092;2022-12-16T05:55:39;98158.13;;;5.35;53.58
15604;BME280;7902;49.042;9.092;2022-12-16T05:58:23;98160.41;;;5.27;54.00
15604;BME280;7902;49.042;9.092;2022-12-16T06:01:08;98171.75;;;5.39;53.81
15604;BME280;7902;49.042;9.092;2022-12-16T06:03:52;98181.47;;;5.37;53.46
15604;BME280;7902;49.042;9.092;2022-12-16T06:06:37;98179.63;;;5.24;53.23
15604;BME280;7902;49.042;9.092;2022-12-16T06:09:21;98190.69;;;5.28;54.09
15604;BME280;7902;49.042;9.092;2022-12-16T06:12:06;98193.34;;;5.14;54.42
15604;BME280;7902;49.042;9.092;2022-12-16T06:14:51;98203.16;;;5.23;53.83
15604;BME280;7902;49.042;9.092;2022-12-16T06:17:35;98196.13;;;5.38;53.50
15604;BME280;7902;49.042;9.092;2022-12-16T06:20:20;98197.78;;;5.26;53.48
15604;BME280;7902;49.042;9.092;2022-12-16T06:23:04;98201.22;;;5.00;54.22
15604;BME280;7902;49.042;9.092;2022-12-16T06:25:49;98214.22;;;5.26;54.24
15604;BME280;7902;49.042;9.092;2022-12-16T06:28:33;98201.56;;;5.08;54.39
15604;BME280;7902;49.042;9.092;2022-12-16T06:31:17;98211.91;;;5.22;53.62
15604;BME280;7902;49.042;9.092;2022-12-16T06:34:02;98217.03;;;4.97;54.97
15604;BME280;7902;49.042;9.092;2022-12-16T06:36:46;98216.47;;;4.92;54.39
15604;BME280;7902;49.042;9.092;2022-12-16T06:39:30;98228.75;;;4.90;54.32
15604;BME280;7902;49.042;9.092;2022-12-16T06:42:15;98233.69;;;4.94;54.51
15604;BME280;7902;49.042;9.092;2022-12-16T06:44:59;98234.44;;;5.09;53.95
15604;BME280;7902;49.042;9.092;2022-12-16T06:47:43;98241.22;;;5.11;54.12
15604;BME280;7902;49.042;9.092;2022-12-16T06:50:28;98258.00;;;4.93;53.84
15604;BME280;7902;49.042;9.092;2022-12-16T06:53:13;98252.41;;;4.99;53.96
15604;BME280;7902;49.042;9.092;2022-12-16T06:55:58;98258.00;;;5.20;53.44
15604;BME280;7902;49.042;9.092;2022-12-16T06:58:42;98262.16;;;4.96;53.69
15604;BME280;7902;49.042;9.092;2022-12-16T07:01:27;98262.31;;;4.80;53.79
15604;BME280;7902;49.042;9.092;2022-12-16T07:04:11;98272.44;;;4.70;54.14
15604;BME280;7902;49.042;9.092;2022-12-16T07:06:56;98266.16;;;4.60;53.92
15604;BME280;7902;49.042;9.092;2022-12-16T07:09:40;98266.22;;;4.73;54.07
15604;BME280;7902;49.042;9.092;2022-12-16T07:12:24;98277.91;;;4.94;53.64
15604;BME280;7902;49.042;9.092;2022-12-16T07:15:10;98280.38;;;4.96;53.42
15604;BME280;7902;49.042;9.092;2022-12-16T07:17:54;98285.78;;;4.93;53.03
15604;BME280;7902;49.042;9.092;2022-12-16T07:20:39;98291.72;;;4.80;53.43
15604;BME280;7902;49.042;9.092;2022-12-16T07:23:23;98298.81;;;4.78;53.48
15604;BME280;7902;49.042;9.092;2022-12-16T07:26:07;98300.84;;;4.73;53.29
15604;BME280;7902;49.042;9.092;2022-12-16T07:28:52;98304.28;;;4.74;53.22
15604;BME280;7902;49.042;9.092;2022-12-16T07:31:36;98302.34;;;4.77;53.06
15604;BME280;7902;49.042;9.092;2022-12-16T07:34:20;98324.81;;;4.93;53.16
15604;BME280;7902;49.042;9.092;2022-12-16T07:37:05;98319.97;;;4.86;52.71
15604;BME280;7902;49.042;9.092;2022-12-16T07:39:49;98318.28;;;4.85;52.80
15604;BME280;7902;49.042;9.092;2022-12-16T07:42:34;98326.66;;;4.91;52.96
15604;BME280;7902;49.042;9.092;2022-12-16T07:45:32;98321.84;;;4.84;52.27
15604;BME280;7902;49.042;9.092;2022-12-16T07:48:16;98335.78;;;4.83;53.05
15604;BME280;7902;49.042;9.092;2022-12-16T07:51:01;98337.25;;;4.73;52.63
15604;BME280;7902;49.042;9.092;2022-12-16T07:53:45;98344.31;;;4.85;52.70
15604;BME280;7902;49.042;9.092;2022-12-16T07:56:30;98340.69;;;4.74;52.65
15604;BME280;7902;49.042;9.092;2022-12-16T07:59:14;98342.09;;;4.94;52.51
15604;BME280;7902;49.042;9.092;2022-12-16T08:01:59;98343.75;;;4.80;52.74
15604;BME280;7902;49.042;9.092;2022-12-16T08:04:43;98356.75;;;4.80;52.71
15604;BME280;7902;49.042;9.092;2022-12-16T08:07:28;98359.75;;;4.89;52.31
15604;BME280;7902;49.042;9.092;2022-12-16T08:10:13;98362.63;;;4.84;52.35
15604;BME280;7902;49.042;9.092;2022-12-16T08:13:01;98370.31;;;4.85;52.71
15604;BME280;7902;49.042;9.092;2022-12-16T08:15:46;98380.53;;;4.89;52.28
15604;BME280;7902;49.042;9.092;2022-12-16T08:18:30;98391.50;;;4.79;52.52
15604;BME280;7902;49.042;9.092;2022-12-16T08:21:14;98387.31;;;4.63;52.41
15604;BME280;7902;49.042;9.092;2022-12-16T08:23:59;98394.56;;;4.72;52.63
15604;BME280;7902;49.042;9.092;2022-12-16T08:26:44;98400.44;;;4.75;52.53
15604;BME280;7902;49.042;9.092;2022-12-16T08:29:29;98404.50;;;4.79;52.42
15604;BME280;7902;49.042;9.092;2022-12-16T08:32:14;98409.59;;;4.81;52.54
15604;BME280;7902;49.042;9.092;2022-12-16T08:34:59;98416.03;;;4.75;52.11
15604;BME280;7902;49.042;9.092;2022-12-16T08:37:44;98427.53;;;4.85;52.29
15604;BME280;7902;49.042;9.092;2022-12-16T08:40:28;98430.66;;;4.62;52.14
15604;BME280;7902;49.042;9.092;2022-12-16T08:43:13;98437.09;;;4.71;52.35
15604;BME280;7902;49.042;9.092;2022-12-16T08:45:58;98438.38;;;4.64;51.95
15604;BME280;7902;49.042;9.092;2022-12-16T08:48:42;98436.06;;;4.59;52.30
15604;BME280;7902;49.042;9.092;2022-12-16T08:51:27;98437.75;;;4.74;52.13
15604;BME280;7902;49.042;9.092;2022-12-16T08:54:12;98437.34;;;4.66;52.34
15604;BME280;7902;49.042;9.092;2022-12-16T08:56:57;98441.28;;;4.88;51.70
15604;BME280;7902;49.042;9.092;2022-12-16T08:59:42;98446.13;;;4.94;51.31
15604;BME280;7902;49.042;9.092;2022-12-16T09:05:00;98458.28;;;4.79;51.50
15604;BME280;7902;49.042;9.092;2022-12-16T09:07:44;98454.88;;;4.93;51.35
15604;BME280;7902;49.042;9.092;2022-12-16T09:10:29;98457.00;;;5.00;51.31
15604;BME280;7902;49.042;9.092;2022-12-16T09:13:14;98466.56;;;5.00;51.44
15604;BME280;7902;49.042;9.092;2022-12-16T09:15:59;98472.16;;;4.94;51.24
15604;BME280;7902;49.042;9.092;2022-12-16T09:18:43;98478.19;;;4.80;51.45
15604;BME280;7902;49.042;9.092;2022-12-16T09:21:28;98481.22;;;4.86;51.76
15604;BME280;7902;49.042;9.092;2022-12-16T09:24:12;98481.63;;;5.09;51.23
15604;BME280;7902;49.042;9.092;2022-12-16T09:26:57;98485.53;;;5.02;51.09
15604;BME280;7902;49.042;9.092;2022-12-16T09:29:41;98487.75;;;4.79;51.00
15604;BME280;7902;49.042;9.092;2022-12-16T09:32:26;98491.63;;;4.86;51.36
15604;BME280;7902;49.042;9.092;2022-12-16T09:35:10;98488.94;;;4.88;51.49
15604;BME280;7902;49.042;9.092;2022-12-16T09:37:54;98491.28;;;4.93;51.20
15604;BME280;7902;49.042;9.092;2022-12-16T09:40:40;98492.00;;;4.80;51.44
15604;BME280;7902;49.042;9.092;2022-12-16T09:43:47;98498.59;;;4.86;51.01
15604;BME280;7902;49.042;9.092;2022-12-16T09:49:46;98499.53;;;4.99;51.38
15604;BME280;7902;49.042;9.092;2022-12-16T09:52:36;98506.25;;;4.89;50.87
15604;BME280;7902;49.042;9.092;2022-12-16T09:55:31;98503.19;;;4.97;51.19
15604;BME280;7902;49.042;9.092;2022-12-16T09:58:19;98502.13;;;4.99;51.23
15604;BME280;7902;49.042;9.092;2022-12-16T10:01:11;98509.50;;;5.07;51.05
15604;BME280;7902;49.042;9.092;2022-12-16T10:03:56;98510.63;;;5.17;50.58
15604;BME280;7902;49.042;9.092;2022-12-16T10:06:44;98507.63;;;5.09;50.07
15604;BME280;7902;49.042;9.092;2022-12-16T10:09:40;98512.56;;;5.13;50.02
15604;BME280;7902;49.042;9.092;2022-12-16T10:19:06;98502.84;;;5.31;49.79
15604;BME280;7902;49.042;9.092;2022-12-16T10:22:17;98512.22;;;5.19;50.28
15604;BME280;7902;49.042;9.092;2022-12-16T10:28:17;98509.88;;;5.29;50.33
15604;BME280;7902;49.042;9.092;2022-12-16T10:31:11;98513.91;;;5.35;50.26
15604;BME280;7902;49.042;9.092;2022-12-16T10:33:56;98514.19;;;5.44;49.87
15604;BME280;7902;49.042;9.092;2022-12-16T10:36:46;98521.78;;;5.19;49.61
15604;BME280;7902;49.042;9.092;2022-12-16T10:39:37;98516.19;;;5.11;49.97
15604;BME280;7902;49.042;9.092;2022-12-16T10:42:31;98521.13;;;5.15;50.07
15604;BME280;7902;49.042;9.092;2022-12-16T10:45:28;98520.09;;;5.46;49.61
15604;BME280;7902;49.042;9.092;2022-12-16T10:48:17;98528.66;;;5.34;49.29
15604;BME280;7902;49.042;9.092;2022-12-16T10:51:12;98531.47;;;5.45;49.85
15604;BME280;7902;49.042;9.092;2022-12-16T10:54:01;98529.44;;;5.50;49.94
15604;BME280;7902;49.042;9.092;2022-12-16T10:57:05;98526.81;;;5.50;49.93
15604;BME280;7902;49.042;9.092;2022-12-16T11:00:07;98526.81;;;5.36;49.97
15604;BME280;7902;49.042;9.092;2022-12-16T11:02:51;98540.41;;;5.55;49.81
15604;BME280;7902;49.042;9.092;2022-12-16T11:05:36;98539.94;;;5.35;49.64
15604;BME280;7902;49.042;9.092;2022-12-16T11:08:24;98540.84;;;5.34;49.78
15604;BME280;7902;49.042;9.092;2022-12-16T11:11:22;98533.69;;;5.37;49.80
15604;BME280;7902;49.042;9.092;2022-12-16T11:14:25;98539.16;;;5.61;49.31
15604;BME280;7902;49.042;9.092;2022-12-16T11:17:22;98543.09;;;5.68;49.71
15604;BME280;7902;49.042;9.092;2022-12-16T11:20:15;98545.63;;;5.55;49.13
15604;BME280;7902;49.042;9.092;2022-12-16T11:23:18;98549.03;;;5.56;49.34
15604;BME280;7902;49.042;9.092;2022-12-16T11:26:13;98546.53;;;5.40;48.83
15604;BME280;7902;49.042;9.092;2022-12-16T11:29:02;98548.50;;;5.65;49.44
15604;BME280;7902;49.042;9.092;2022-12-16T11:32:23;98557.66;;;5.70;48.86
15604;BME280;7902;49.042;9.092;2022-12-16T11:35:12;98561.03;;;5.72;48.91
15604;BME280;7902;49.042;9.092;2022-12-16T11:37:59;98556.31;;;5.51;49.57
15604;BME280;7902;49.042;9.092;2022-12-16T11:40:45;98557.13;;;5.51;49.30
15604;BME280;7902;49.042;9.092;2022-12-16T11:43:31;98565.31;;;5.73;49.35
15604;BME280;7902;49.042;9.092;2022-12-16T11:46:26;98575.53;;;5.62;49.04
15604;BME280;7902;49.042;9.092;2022-12-16T11:52:09;98572.31;;;5.87;48.89
15604;BME280;7902;49.042;9.092;2022-12-16T11:58:30;98580.97;;;5.88;48.27
15604;BME280;7902;49.042;9.092;2022-12-16T12:01:34;98579.72;;;5.93;48.86
15604;BME280;7902;49.042;9.092;2022-12-16T12:04:19;98579.06;;;6.04;48.94
15604;BME280;7902;49.042;9.092;2022-12-16T12:10:42;98597.50;;;6.01;47.98
15604;BME280;7902;49.042;9.092;2022-12-16T12:17:04;98593.50;;;5.95;47.57
15604;BME280;7902;49.042;9.092;2022-12-16T12:22:42;98606.63;;;5.94;48.30
15604;BME280;7902;49.042;9.092;2022-12-16T12:31:39;98623.75;;;5.84;48.40
15604;BME280;7902;49.042;9.092;2022-12-16T12:37:46;98621.03;;;5.71;48.14
15604;BME280;7902;49.042;9.092;2022-12-16T12:40:49;98633.13;;;5.72;48.44
15604;BME280;7902;49.042;9.092;2022-12-16T12:44:00;98630.34;;;5.89;48.71
15604;BME280;7902;49.042;9.092;2022-12-16T12:46:56;98625.41;;;5.85;47.90
15604;BME280;7902;49.042;9.092;2022-12-16T12:49:52;98627.06;;;5.71;48.23
15604;BME280;7902;49.042;9.092;2022-12-16T12:56:08;98633.81;;;6.04;48.01
15604;BME280;7902;49.042;9.092;2022-12-16T12:59:01;98638.66;;;5.96;47.92
15604;BME280;7902;49.042;9.092;2022-12-16T13:01:49;98632.50;;;5.97;47.88
15604;BME280;7902;49.042;9.092;2022-12-16T13:04:36;98641.91;;;5.99;48.08
15604;BME280;7902;49.042;9.092;2022-12-16T13:07:21;98634.72;;;6.03;47.87
15604;BME280;7902;49.042;9.092;2022-12-16T13:16:10;98643.22;;;6.06;47.37
15604;BME280;7902;49.042;9.092;2022-12-16T13:22:30;98640.91;;;6.02;48.00
15604;BME280;7902;49.042;9.092;2022-12-16T13:28:32;98642.53;;;6.03;47.65
15604;BME280;7902;49.042;9.092;2022-12-16T13:31:17;98651.31;;;6.02;47.84
15604;BME280;7902;49.042;9.092;2022-12-16T13:34:05;98656.53;;;6.02;47.65
15604;BME280;7902;49.042;9.092;2022-12-16T13:36:55;98649.28;;;6.07;48.14
15604;BME280;7902;49.042;9.092;2022-12-16T13:39:42;98664.44;;;6.00;47.59
15604;BME280;7902;49.042;9.092;2022-12-16T13:42:48;98664.16;;;6.05;47.92
15604;BME280;7902;49.042;9.092;2022-12-16T13:45:39;98668.59;;;6.17;48.58
15604;BME280;7902;49.042;9.092;2022-12-16T13:48:36;98669.72;;;5.99;48.45
15604;BME280;7902;49.042;9.092;2022-12-16T13:54:28;98685.00;;;5.91;48.10
15604;BME280;7902;49.042;9.092;2022-12-16T13:57:17;98695.16;;;6.09;48.24
15604;BME280;7902;49.042;9.092;2022-12-16T14:00:04;98703.16;;;5.92;48.23
15604;BME280;7902;49.042;9.092;2022-12-16T14:02:50;98706.41;;;6.10;48.65
15604;BME280;7902;49.042;9.092;2022-12-16T14:05:36;98718.69;;;6.08;48.12
15604;BME280;7902;49.042;9.092;2022-12-16T14:08:28;98723.59;;;5.98;48.48
15604;BME280;7902;49.042;9.092;2022-12-16T14:11:24;98723.63;;;6.12;47.69
15604;BME280;7902;49.042;9.092;2022-12-16T14:14:23;98725.94;;;6.03;48.29
15604;BME280;7902;49.042;9.092;2022-12-16T14:17:19;98719.78;;;5.90;48.63
15604;BME280;7902;49.042;9.092;2022-12-16T14:20:10;98727.19;;;5.82;48.59
15604;BME280;7902;49.042;9.092;2022-12-16T14:23:24;98729.88;;;5.80;49.32
15604;BME280;7902;49.042;9.092;2022-12-16T14:26:13;98734.59;;;5.89;49.18
15604;BME280;7902;49.042;9.092;2022-12-16T14:29:00;98737.75;;;5.94;48.99
15604;BME280;7902;49.042;9.092;2022-12-16T14:31:45;98747.63;;;5.89;48.95
15604;BME280;7902;49.042;9.092;2022-12-16T14:34:35;98748.56;;;5.88;48.84
15604;BME280;7902;49.042;9.092;2022-12-16T14:37:32;98753.03;;;6.00;49.04
15604;BME280;7902;49.042;9.092;2022-12-16T14:40:31;98761.59;;;5.88;48.88
15604;BME280;7902;49.042;9.092;2022-12-16T14:43:24;98764.66;;;5.95;48.72
15604;BME280;7902;49.042;9.092;2022-12-16T14:46:29;98783.75;;;5.80;48.50
15604;BME280;7902;49.042;9.092;2022-12-16T14:49:27;98777.22;;;5.88;48.35
15604;BME280;7902;49.042;9.092;2022-12-16T14:52:22;98779.84;;;5.88;48.52
15604;BME280;7902;49.042;9.092;2022-12-16T14:55:18;98783.38;;;6.01;49.30
15604;BME280;7902;49.042;9.092;2022-12-16T14:58:05;98791.38;;;5.98;48.36
15604;BME280;7902;49.042;9.092;2022-12-16T15:00:53;98792.78;;;5.74;48.93
15604;BME280;7902;49.042;9.092;2022-12-16T15:03:43;98792.25;;;5.83;49.02
15604;BME280;7902;49.042;9.092;2022-12-16T15:06:31;98792.69;;;5.75;49.00
15604;BME280;7902;49.042;9.092;2022-12-16T15:09:25;98798.69;;;5.62;49.34
15604;BME280;7902;49.042;9.092;2022-12-16T15:12:14;98805.66;;;5.61;49.91
15604;BME280;7902;49.042;9.092;2022-12-16T15:15:04;98803.63;;;5.66;49.00
15604;BME280;7902;49.042;9.092;2022-12-16T15:17:55;98809.06;;;5.78;49.73
15604;BME280;7902;49.042;9.092;2022-12-16T15:20:49;98815.47;;;5.72;49.65
15604;BME280;7902;49.042;9.092;2022-12-16T15:23:41;98822.19;;;5.60;50.06
15604;BME280;7902;49.042;9.092;2022-12-16T15:26:30;98821.66;;;5.85;49.25
15604;BME280;7902;49.042;9.092;2022-12-16T15:29:39;98831.81;;;5.60;49.87
15604;BME280;7902;49.042;9.092;2022-12-16T15:35:32;98830.53;;;5.51;49.48
15604;BME280;7902;49.042;9.092;2022-12-16T15:41:32;98838.19;;;5.39;50.56
15604;BME280;7902;49.042;9.092;2022-12-16T15:44:24;98851.47;;;5.50;49.83
15604;BME280;7902;49.042;9.092;2022-12-16T15:50:14;98860.38;;;5.46;50.23
15604;BME280;7902;49.042;9.092;2022-12-16T15:55:59;98873.22;;;5.33;50.20
15604;BME280;7902;49.042;9.092;2022-12-16T15:58:44;98888.09;;;5.31;50.36
15604;BME280;7902;49.042;9.092;2022-12-16T16:01:38;98890.25;;;5.23;50.60
15604;BME280;7902;49.042;9.092;2022-12-16T16:04:27;98895.56;;;5.21;50.23
15604;BME280;7902;49.042;9.092;2022-12-16T16:07:18;98896.50;;;5.36;50.40
15604;BME280;7902;49.042;9.092;2022-12-16T16:10:20;98902.34;;;5.24;50.58
15604;BME280;7902;49.042;9.092;2022-12-16T16:13:06;98893.88;;;5.20;50.49
15604;BME280;7902;49.042;9.092;2022-12-16T16:15:51;98894.16;;;5.32;50.84
15604;BME280;7902;49.042;9.092;2022-12-16T16:18:36;98895.72;;;5.34;50.50
15604;BME280;7902;49.042;9.092;2022-12-16T16:21:21;98906.31;;;5.31;50.09